createdAt,value
2017-12-20T00:00:09.062Z,9.00
2017-12-20T00:02:41.020Z,9.00
2017-12-20T00:05:07.663Z,9.00
2017-12-20T00:07:34.415Z,9.00
2017-12-20T00:10:01.562Z,9.00
2017-12-20T00:12:28.191Z,9.00
2017-12-20T00:14:54.867Z,9.00
2017-12-20T00:17:21.664Z,9.00
2017-12-20T00:19:48.335Z,9.00
2017-12-20T00:22:15.099Z,9.00
2017-12-20T00:24:41.777Z,9.00
2017-12-20T00:27:08.827Z,9.00
2017-12-20T00:29:35.478Z,9.00
2017-12-20T00:32:10.701Z,9.00
2017-12-20T00:34:41.011Z,9.00
2017-12-20T00:37:07.666Z,9.00
2017-12-20T00:39:34.438Z,9.00
2017-12-20T00:42:01.293Z,9.00
2017-12-20T00:44:27.923Z,9.00
2017-12-20T00:46:59.094Z,9.00
2017-12-20T00:49:25.786Z,9.00
2017-12-20T00:51:52.438Z,9.00
2017-12-20T00:54:19.194Z,9.00
2017-12-20T00:56:45.854Z,9.00
2017-12-20T00:59:12.666Z,9.00
2017-12-20T01:01:39.324Z,9.00
2017-12-20T01:04:05.969Z,9.00
2017-12-20T01:06:32.641Z,9.00
2017-12-20T01:08:59.691Z,8.90
2017-12-20T01:11:26.367Z,9.00
2017-12-20T01:13:53.098Z,8.90
2017-12-20T01:16:19.776Z,9.00
2017-12-20T01:18:46.426Z,8.90
2017-12-20T01:21:13.091Z,9.00
2017-12-20T01:23:39.883Z,8.90
2017-12-20T01:26:06.545Z,8.90
2017-12-20T01:28:33.283Z,9.00
2017-12-20T01:31:00.377Z,8.90
2017-12-20T01:33:27.080Z,8.90
2017-12-20T01:35:58.996Z,8.90
2017-12-20T01:38:34.667Z,8.90
2017-12-20T01:41:01.297Z,9.00
2017-12-20T01:43:28.938Z,8.90
2017-12-20T01:45:55.586Z,8.80
2017-12-20T01:48:22.296Z,9.00
2017-12-20T01:50:49.043Z,8.90
2017-12-20T01:53:15.692Z,9.00
2017-12-20T01:55:42.334Z,9.00
2017-12-20T01:58:08.991Z,9.00
2017-12-20T02:00:35.654Z,8.90
2017-12-20T02:03:02.314Z,8.90
2017-12-20T02:05:29.076Z,8.90
2017-12-20T02:07:55.762Z,9.00
2017-12-20T02:10:22.414Z,9.00
2017-12-20T02:12:49.046Z,8.90
2017-12-20T02:15:15.720Z,8.90
2017-12-20T02:17:42.467Z,9.00
2017-12-20T02:20:09.137Z,8.90
2017-12-20T02:22:36.164Z,8.90
2017-12-20T02:25:02.861Z,8.90
2017-12-20T02:27:29.648Z,8.90
2017-12-20T02:29:56.286Z,8.90
2017-12-20T02:32:22.937Z,8.90
2017-12-20T02:37:29.080Z,8.90
2017-12-20T02:39:55.770Z,8.90
2017-12-20T02:42:22.452Z,8.90
2017-12-20T02:44:49.179Z,8.90
2017-12-20T02:47:15.867Z,8.90
2017-12-20T02:49:42.506Z,8.90
2017-12-20T02:52:09.196Z,8.90
2017-12-20T02:54:35.923Z,8.90
2017-12-20T02:57:10.586Z,8.90
2017-12-20T02:59:37.218Z,8.90
2017-12-20T03:02:03.900Z,8.90
2017-12-20T03:04:30.534Z,8.90
2017-12-20T03:09:35.831Z,8.90
2017-12-20T03:12:02.501Z,9.00
2017-12-20T03:14:29.176Z,8.90
2017-12-20T03:16:55.943Z,8.90
2017-12-20T03:19:22.620Z,8.90
2017-12-20T03:21:49.268Z,8.90
2017-12-20T03:24:15.987Z,8.90
2017-12-20T03:26:43.100Z,8.90
2017-12-20T03:29:09.754Z,8.90
2017-12-20T03:31:36.450Z,8.90
2017-12-20T03:34:03.131Z,9.00
2017-12-20T03:36:29.855Z,8.90
2017-12-20T03:38:56.532Z,8.90
2017-12-20T03:41:23.175Z,8.90
2017-12-20T03:43:50.284Z,8.90
2017-12-20T03:46:17.038Z,8.90
2017-12-20T03:48:47.125Z,8.90
2017-12-20T03:51:13.820Z,8.90
2017-12-20T03:53:40.464Z,8.90
2017-12-20T03:56:07.175Z,8.90
2017-12-20T03:58:33.894Z,8.90
2017-12-20T04:01:00.556Z,8.90
2017-12-20T04:03:27.194Z,8.90
2017-12-20T04:05:53.846Z,8.90
2017-12-20T04:08:20.554Z,8.90
2017-12-20T04:10:47.287Z,8.90
2017-12-20T04:13:13.925Z,8.90
2017-12-20T04:15:40.569Z,8.90
2017-12-20T04:18:07.234Z,8.90
2017-12-20T04:20:33.902Z,8.90
2017-12-20T04:23:00.674Z,9.00
2017-12-20T04:25:27.324Z,8.90
2017-12-20T04:27:54.030Z,8.90
2017-12-20T04:30:20.775Z,9.00
2017-12-20T04:32:47.442Z,9.00
2017-12-20T04:35:14.134Z,8.90
2017-12-20T04:37:40.924Z,9.00
2017-12-20T04:40:07.573Z,8.90
2017-12-20T04:42:34.694Z,8.90
2017-12-20T04:45:01.406Z,8.90
2017-12-20T04:47:28.463Z,8.90
2017-12-20T04:49:59.256Z,8.90
2017-12-20T04:52:25.894Z,9.00
2017-12-20T04:54:52.571Z,9.00
2017-12-20T04:57:19.302Z,9.00
2017-12-20T04:59:45.975Z,8.90
2017-12-20T05:02:12.619Z,9.00
2017-12-20T05:04:39.283Z,8.90
2017-12-20T05:07:11.190Z,8.90
2017-12-20T05:09:37.841Z,8.90
2017-12-20T05:12:04.657Z,8.90
2017-12-20T05:14:31.313Z,8.90
2017-12-20T05:16:57.959Z,8.90
2017-12-20T05:19:29.140Z,8.90
2017-12-20T05:21:55.774Z,8.90
2017-12-20T05:24:22.491Z,8.90
2017-12-20T05:26:58.640Z,8.90
2017-12-20T05:29:25.309Z,8.90
2017-12-20T05:31:53.118Z,8.90
2017-12-20T05:34:28.754Z,8.90
2017-12-20T05:36:55.414Z,9.00
2017-12-20T05:39:23.060Z,8.90
2017-12-20T05:41:49.711Z,8.90
2017-12-20T05:44:16.375Z,8.90
2017-12-20T05:46:43.410Z,8.90
2017-12-20T05:49:16.793Z,8.90
2017-12-20T05:51:47.106Z,8.90
2017-12-20T05:54:17.250Z,8.90
2017-12-20T05:56:43.887Z,8.90
2017-12-20T05:59:10.965Z,8.90
2017-12-20T06:01:37.614Z,8.90
2017-12-20T06:04:04.631Z,9.00
2017-12-20T06:06:31.270Z,8.90
2017-12-20T06:08:57.914Z,9.00
2017-12-20T06:11:24.576Z,9.00
2017-12-20T06:13:51.323Z,9.00
2017-12-20T06:16:17.982Z,8.90
2017-12-20T06:18:44.637Z,8.90
2017-12-20T06:21:11.306Z,8.90
2017-12-20T06:23:41.166Z,8.90
2017-12-20T06:26:07.834Z,8.90
2017-12-20T06:28:41.196Z,8.90
2017-12-20T06:31:11.120Z,8.90
2017-12-20T06:33:37.904Z,8.90
2017-12-20T06:36:05.227Z,8.90
2017-12-20T06:38:31.866Z,8.90
2017-12-20T06:40:59.144Z,8.90
2017-12-20T06:43:29.221Z,8.90
2017-12-20T06:45:59.111Z,8.90
2017-12-20T06:48:25.783Z,8.90
2017-12-20T06:50:52.423Z,8.90
2017-12-20T06:55:59.173Z,8.90
2017-12-20T06:58:34.824Z,8.90
2017-12-20T07:01:05.194Z,8.90
2017-12-20T07:03:40.795Z,8.90
2017-12-20T07:06:16.658Z,8.90
2017-12-20T07:08:47.215Z,8.90
2017-12-20T07:13:53.214Z,8.90
2017-12-20T07:18:59.143Z,8.90
2017-12-20T07:24:05.027Z,8.90
2017-12-20T07:26:31.720Z,8.90
2017-12-20T07:28:58.363Z,8.90
2017-12-20T07:31:25.036Z,8.90
2017-12-20T07:33:51.691Z,8.90
2017-12-20T07:36:18.354Z,8.90
2017-12-20T07:38:45.110Z,8.90
2017-12-20T07:41:22.810Z,8.90
2017-12-20T07:43:49.451Z,8.90
2017-12-20T07:46:16.131Z,8.90
2017-12-20T07:48:42.781Z,8.90
2017-12-20T07:51:09.479Z,8.90
2017-12-20T07:53:36.244Z,8.90
2017-12-20T07:56:10.908Z,8.90
2017-12-20T07:58:37.658Z,9.00
2017-12-20T08:01:04.468Z,8.90
2017-12-20T08:03:31.596Z,8.90
2017-12-20T08:05:58.333Z,8.90
2017-12-20T08:08:25.026Z,8.90
2017-12-20T08:10:51.690Z,8.90
2017-12-20T08:13:18.377Z,8.90
2017-12-20T08:15:47.230Z,8.90
2017-12-20T08:18:13.873Z,8.90
2017-12-20T08:20:40.538Z,8.90
2017-12-20T08:23:07.332Z,8.90
2017-12-20T08:25:33.998Z,8.90
2017-12-20T08:28:00.656Z,8.90
2017-12-20T08:30:27.314Z,8.90
2017-12-20T08:32:54.054Z,9.00
2017-12-20T08:35:20.750Z,8.90
2017-12-20T08:37:53.275Z,9.00
2017-12-20T08:40:19.944Z,9.00
2017-12-20T08:42:46.591Z,9.00
2017-12-20T08:45:17.311Z,9.00
2017-12-20T08:47:43.954Z,9.00
2017-12-20T08:50:10.803Z,8.90
2017-12-20T08:52:41.321Z,9.00
2017-12-20T08:55:11.239Z,9.00
2017-12-20T08:57:38.299Z,9.00
2017-12-20T09:00:05.058Z,9.00
2017-12-20T09:02:31.730Z,9.00
2017-12-20T09:04:58.460Z,8.90
2017-12-20T09:07:25.210Z,9.00
2017-12-20T09:09:51.923Z,8.90
2017-12-20T09:12:18.710Z,8.90
2017-12-20T09:14:45.392Z,9.00
2017-12-20T09:17:12.070Z,9.00
2017-12-20T09:19:38.803Z,9.00
2017-12-20T09:22:05.484Z,8.90
2017-12-20T09:24:35.142Z,8.90
2017-12-20T09:27:10.824Z,9.00
2017-12-20T09:29:37.492Z,9.00
2017-12-20T09:32:10.819Z,9.00
2017-12-20T09:34:37.457Z,9.00
2017-12-20T09:37:10.857Z,8.90
2017-12-20T09:39:37.491Z,9.00
2017-12-20T09:42:04.282Z,9.00
2017-12-20T09:44:31.381Z,9.00
2017-12-20T09:46:59.270Z,9.00
2017-12-20T09:49:25.920Z,9.00
2017-12-20T09:51:52.574Z,8.90
2017-12-20T09:54:19.224Z,8.90
2017-12-20T09:56:47.260Z,9.00
2017-12-20T09:59:13.915Z,9.00
2017-12-20T10:01:40.572Z,8.90
2017-12-20T10:04:07.224Z,9.00
2017-12-20T10:06:33.993Z,9.00
2017-12-20T10:09:05.365Z,9.00
2017-12-20T10:11:32.098Z,9.00
2017-12-20T10:13:58.842Z,9.00
2017-12-20T10:19:05.110Z,9.00
2017-12-20T10:21:31.840Z,9.00
2017-12-20T10:23:58.478Z,9.00
2017-12-20T10:26:25.658Z,9.00
2017-12-20T10:28:52.762Z,9.00
2017-12-20T10:31:19.433Z,9.00
2017-12-20T10:33:46.095Z,9.00
2017-12-20T10:36:12.770Z,9.00
2017-12-20T10:38:39.513Z,9.00
2017-12-20T10:41:06.155Z,9.00
2017-12-20T10:43:32.810Z,9.00
2017-12-20T10:45:59.449Z,8.90
2017-12-20T10:48:29.351Z,9.00
2017-12-20T10:50:55.996Z,9.00
2017-12-20T10:53:22.643Z,9.00
2017-12-20T10:55:49.272Z,9.00
2017-12-20T10:58:16.115Z,9.00
2017-12-20T11:00:42.755Z,9.00
2017-12-20T11:03:11.206Z,9.00
2017-12-20T11:05:37.844Z,9.00
2017-12-20T11:08:04.626Z,9.00
2017-12-20T11:10:31.734Z,9.00
2017-12-20T11:12:58.403Z,9.00
2017-12-20T11:15:25.050Z,9.00
2017-12-20T11:17:51.706Z,9.00
2017-12-20T11:22:59.266Z,9.00
2017-12-20T11:28:05.388Z,9.00
2017-12-20T11:30:35.378Z,9.00
2017-12-20T11:33:05.474Z,9.00
2017-12-20T11:35:32.154Z,9.00
2017-12-20T11:37:58.824Z,9.00
2017-12-20T11:40:25.571Z,9.00
2017-12-20T11:42:52.234Z,9.00
2017-12-20T11:45:18.895Z,9.00
2017-12-20T11:47:45.542Z,9.00
2017-12-20T11:50:17.231Z,9.00
2017-12-20T11:52:43.935Z,9.00
2017-12-20T11:55:10.586Z,9.00
2017-12-20T11:57:37.369Z,9.00
2017-12-20T12:00:04.023Z,9.00
2017-12-20T12:02:30.690Z,9.00
2017-12-20T12:04:59.324Z,9.00
2017-12-20T12:07:26.020Z,9.00
2017-12-20T12:09:52.649Z,9.00
2017-12-20T12:12:23.363Z,9.00
2017-12-20T12:14:50.042Z,9.00
2017-12-20T12:17:16.786Z,9.00
2017-12-20T12:19:43.455Z,9.00
2017-12-20T12:22:10.099Z,9.00
2017-12-20T12:24:36.767Z,9.00
2017-12-20T12:27:03.406Z,9.00
2017-12-20T12:29:35.333Z,9.00
2017-12-20T12:32:01.977Z,9.00
2017-12-20T12:34:29.472Z,9.00
2017-12-20T12:36:56.200Z,9.00
2017-12-20T12:39:22.893Z,9.00
2017-12-20T12:41:49.550Z,9.00
2017-12-20T12:44:16.207Z,9.00
2017-12-20T12:46:43.250Z,9.00
2017-12-20T12:49:10.307Z,9.00
2017-12-20T12:51:36.941Z,9.00
2017-12-20T12:54:04.230Z,9.00
2017-12-20T12:56:30.966Z,9.00
2017-12-20T12:58:57.603Z,9.00
2017-12-20T13:01:24.289Z,9.00
2017-12-20T13:03:50.943Z,9.00
2017-12-20T13:06:18.001Z,9.00
2017-12-20T13:08:44.774Z,9.00
2017-12-20T13:11:11.495Z,9.00
2017-12-20T13:13:38.227Z,9.00
2017-12-20T13:16:05.118Z,9.00
2017-12-20T13:18:35.406Z,9.00
2017-12-20T13:21:02.074Z,9.00
2017-12-20T13:23:28.733Z,9.00
2017-12-20T13:25:55.380Z,9.00
2017-12-20T13:28:22.038Z,9.00
2017-12-20T13:30:48.804Z,9.00
2017-12-20T13:33:17.324Z,9.00
2017-12-20T13:35:43.978Z,9.00
2017-12-20T13:38:10.634Z,9.00
2017-12-20T13:40:37.417Z,9.00
2017-12-20T13:43:04.065Z,9.00
2017-12-20T13:45:30.702Z,9.00
2017-12-20T13:47:57.372Z,9.00
2017-12-20T13:50:29.271Z,9.00
2017-12-20T13:52:55.934Z,9.00
2017-12-20T13:55:23.350Z,9.00
2017-12-20T13:57:50.068Z,9.00
2017-12-20T14:00:16.707Z,9.00
2017-12-20T14:02:43.470Z,9.00
2017-12-20T14:05:10.122Z,9.00
2017-12-20T14:07:36.787Z,9.00
2017-12-20T14:10:03.436Z,9.00
2017-12-20T14:12:30.099Z,9.00
2017-12-20T14:14:56.908Z,9.00
2017-12-20T14:17:23.566Z,9.00
2017-12-20T14:19:50.203Z,9.00
2017-12-20T14:22:17.418Z,9.00
2017-12-20T14:24:44.094Z,9.00
2017-12-20T14:27:10.789Z,9.00
2017-12-20T14:29:37.513Z,9.00
2017-12-20T14:32:04.143Z,9.00
2017-12-20T14:34:30.817Z,9.00
2017-12-20T14:36:57.473Z,9.00
2017-12-20T14:39:29.396Z,9.00
2017-12-20T14:41:56.054Z,9.00
2017-12-20T14:44:23.496Z,9.00
2017-12-20T14:46:50.593Z,9.00
2017-12-20T14:49:17.366Z,9.00
2017-12-20T14:51:47.479Z,9.00
2017-12-20T14:54:14.134Z,9.00
2017-12-20T14:56:40.811Z,9.00
2017-12-20T14:59:07.502Z,9.00
2017-12-20T15:01:34.259Z,9.00
2017-12-20T15:04:00.948Z,9.00
2017-12-20T15:06:27.700Z,9.00
2017-12-20T15:08:59.487Z,9.00
2017-12-20T15:11:26.129Z,9.00
2017-12-20T15:13:53.444Z,9.00
2017-12-20T15:16:20.177Z,9.00
2017-12-20T15:18:46.829Z,9.00
2017-12-20T15:21:17.359Z,9.00
2017-12-20T15:23:47.477Z,9.00
2017-12-20T15:26:14.117Z,9.00
2017-12-20T15:28:40.841Z,9.00
2017-12-20T15:31:07.587Z,9.00
2017-12-20T15:33:34.265Z,9.00
2017-12-20T15:36:00.924Z,9.00
2017-12-20T15:38:27.591Z,9.00
2017-12-20T15:40:59.458Z,9.00
2017-12-20T15:43:26.154Z,9.00
2017-12-20T15:45:52.790Z,9.00
2017-12-20T15:48:23.475Z,9.00
2017-12-20T15:50:50.111Z,9.00
2017-12-20T15:53:16.770Z,9.00
2017-12-20T15:55:43.436Z,9.10
2017-12-20T15:58:11.459Z,9.20
2017-12-20T16:00:38.171Z,9.30
2017-12-20T16:03:05.150Z,9.50
2017-12-20T16:05:31.824Z,9.60
2017-12-20T16:07:58.462Z,9.80
2017-12-20T16:10:29.363Z,9.90
2017-12-20T16:12:56.004Z,10.00
2017-12-20T16:15:22.872Z,10.10
2017-12-20T16:17:49.514Z,10.10
2017-12-20T16:20:16.318Z,10.20
2017-12-20T16:22:43.013Z,10.20
2017-12-20T16:25:09.794Z,10.20
2017-12-20T16:27:36.442Z,10.40
2017-12-20T16:30:03.096Z,10.50
2017-12-20T16:32:29.743Z,10.40
2017-12-20T16:34:56.410Z,10.50
2017-12-20T16:37:23.156Z,10.70
2017-12-20T16:39:53.525Z,10.80
2017-12-20T16:42:23.440Z,10.70
2017-12-20T16:52:47.515Z,10.90
2017-12-20T16:57:53.627Z,10.90
2017-12-20T17:00:20.331Z,10.90
2017-12-20T17:02:47.595Z,11.00
2017-12-20T17:05:14.373Z,11.00
2017-12-20T17:07:41.043Z,11.00
2017-12-20T17:10:11.544Z,11.00
2017-12-20T17:12:46.996Z,11.00
2017-12-20T17:17:52.506Z,11.00
2017-12-20T17:23:11.010Z,11.10
2017-12-20T17:25:41.353Z,11.10
2017-12-20T17:38:42.439Z,11.30
2017-12-20T17:43:48.257Z,11.40
2017-12-20T17:46:17.521Z,11.30
2017-12-20T17:48:47.423Z,11.30
2017-12-20T17:56:31.521Z,11.40
2017-12-20T17:58:59.382Z,11.50
2017-12-20T18:04:04.989Z,11.50
2017-12-20T18:06:31.630Z,11.40
2017-12-20T18:08:58.297Z,11.50
2017-12-20T18:11:25.067Z,11.50
2017-12-20T18:13:51.728Z,11.40
2017-12-20T18:16:23.473Z,11.60
2017-12-20T18:18:50.099Z,11.70
2017-12-20T18:23:55.232Z,11.70
2017-12-20T18:26:23.571Z,12.00
2017-12-20T18:34:17.022Z,11.90
2017-12-20T18:36:44.069Z,12.00
2017-12-20T18:39:11.436Z,12.00
2017-12-20T18:41:39.134Z,11.90
2017-12-20T18:44:11.532Z,12.10
2017-12-20T18:46:43.194Z,12.30
2017-12-20T18:51:50.017Z,12.30
2017-12-20T18:54:16.709Z,12.30
2017-12-20T18:56:43.366Z,12.30
2017-12-20T18:59:10.018Z,12.10
2017-12-20T19:01:36.680Z,11.90
2017-12-20T19:04:04.029Z,11.70
2017-12-20T19:06:30.769Z,11.60
2017-12-20T19:08:57.485Z,11.60
2017-12-20T19:11:24.224Z,11.50
2017-12-20T19:13:53.523Z,11.40
2017-12-20T19:16:20.240Z,11.40
2017-12-20T19:18:47.331Z,11.30
2017-12-20T19:21:14.106Z,11.30
2017-12-20T19:23:40.766Z,11.30
2017-12-20T19:26:07.880Z,11.20
2017-12-20T19:28:34.580Z,11.20
2017-12-20T19:31:01.319Z,11.20
2017-12-20T19:33:28.022Z,11.20
2017-12-20T19:35:54.742Z,11.20
2017-12-20T19:38:21.431Z,11.10
2017-12-20T19:40:48.108Z,11.10
2017-12-20T19:43:14.758Z,11.10
2017-12-20T19:45:41.481Z,11.10
2017-12-20T19:48:08.177Z,11.10
2017-12-20T19:50:34.902Z,11.00
2017-12-20T19:53:02.091Z,11.00
2017-12-20T19:55:28.809Z,11.00
2017-12-20T19:57:55.467Z,11.00
2017-12-20T20:00:23.721Z,10.90
2017-12-20T20:02:50.439Z,10.90
2017-12-20T20:05:17.542Z,10.90
2017-12-20T20:07:44.292Z,10.90
2017-12-20T20:10:10.983Z,10.90
2017-12-20T20:12:37.662Z,10.90
2017-12-20T20:15:04.388Z,10.90
2017-12-20T20:17:31.136Z,10.90
2017-12-20T20:19:57.848Z,10.90
2017-12-20T20:22:24.671Z,10.80
2017-12-20T20:24:51.425Z,10.80
2017-12-20T20:27:18.152Z,10.80
2017-12-20T20:29:44.870Z,10.80
2017-12-20T20:32:12.006Z,10.80
2017-12-20T20:34:38.733Z,10.70
2017-12-20T20:37:05.487Z,10.80
2017-12-20T20:39:32.194Z,10.80
2017-12-20T20:41:58.914Z,10.80
2017-12-20T20:44:25.651Z,10.70
2017-12-20T20:46:52.379Z,10.70
2017-12-20T20:49:19.112Z,10.70
2017-12-20T20:51:45.812Z,10.70
2017-12-20T20:54:12.517Z,10.70
2017-12-20T20:56:39.202Z,10.70
2017-12-20T20:59:06.306Z,10.70
2017-12-20T21:01:33.032Z,10.70
2017-12-20T21:03:59.738Z,10.70
2017-12-20T21:06:26.468Z,10.70
2017-12-20T21:08:53.561Z,10.60
2017-12-20T21:11:20.279Z,10.60
2017-12-20T21:13:46.992Z,10.60
2017-12-20T21:16:14.111Z,10.60
2017-12-20T21:18:40.809Z,10.60
2017-12-20T21:21:07.558Z,10.70
2017-12-20T21:23:34.309Z,10.60
2017-12-20T21:26:00.997Z,10.60
2017-12-20T21:28:28.094Z,10.60
2017-12-20T21:30:54.789Z,10.60
2017-12-20T21:33:21.535Z,10.60
2017-12-20T21:35:48.184Z,10.60
2017-12-20T21:38:14.901Z,10.60
2017-12-20T21:40:41.637Z,10.60
2017-12-20T21:43:08.777Z,10.50
2017-12-20T21:45:35.481Z,10.60
2017-12-20T21:48:02.172Z,10.50
2017-12-20T21:50:28.868Z,10.50
2017-12-20T21:52:55.621Z,10.50
2017-12-20T21:55:22.330Z,10.50
2017-12-20T21:57:48.990Z,10.50
2017-12-20T22:00:15.710Z,10.50
2017-12-20T22:02:42.460Z,10.50
2017-12-20T22:05:09.207Z,10.50
2017-12-20T22:07:35.925Z,10.50
2017-12-20T22:10:02.680Z,10.50
2017-12-20T22:12:29.413Z,10.50
2017-12-20T22:14:56.117Z,10.50
2017-12-20T22:17:22.845Z,10.40
2017-12-20T22:19:49.490Z,10.40
2017-12-20T22:22:16.205Z,10.40
2017-12-20T22:24:42.904Z,10.40
2017-12-20T22:27:09.617Z,10.40
2017-12-20T22:29:36.313Z,10.40
2017-12-20T22:32:03.075Z,10.40
2017-12-20T22:34:29.803Z,10.40
2017-12-20T22:36:56.528Z,10.40
2017-12-20T22:39:23.628Z,10.30
2017-12-20T22:41:50.361Z,10.30
2017-12-20T22:44:16.995Z,10.30
2017-12-20T22:46:43.719Z,10.30
2017-12-20T22:49:10.422Z,10.30
2017-12-20T22:51:37.144Z,10.30
2017-12-20T22:54:03.857Z,10.30
2017-12-20T22:59:17.157Z,10.30
2017-12-20T23:01:44.214Z,10.30
2017-12-20T23:04:10.919Z,10.30
2017-12-20T23:06:37.643Z,10.30
2017-12-20T23:09:04.381Z,10.20
2017-12-20T23:11:31.108Z,10.30
2017-12-20T23:13:57.814Z,10.30
2017-12-20T23:16:24.616Z,10.30
2017-12-20T23:18:51.707Z,10.20
2017-12-20T23:21:29.230Z,10.20
2017-12-20T23:23:55.926Z,10.20
2017-12-20T23:26:22.577Z,10.20
2017-12-20T23:28:49.284Z,10.20
2017-12-20T23:31:16.380Z,10.20
2017-12-20T23:33:43.183Z,10.20
2017-12-20T23:36:09.886Z,10.20
2017-12-20T23:38:36.652Z,10.20
2017-12-20T23:41:03.745Z,10.20
2017-12-20T23:43:30.436Z,10.20
2017-12-20T23:45:57.094Z,10.20
2017-12-20T23:48:23.770Z,10.20
2017-12-20T23:50:50.410Z,10.20
2017-12-20T23:53:17.087Z,10.20
2017-12-20T23:55:44.162Z,10.10
2017-12-20T23:58:10.883Z,10.20
